• Join FlightAware (Why Join?)
  • Login
  • US Flag 
10:14AM EDT


 

Airport Tracker/Info


-or-


 

Live Flight TrackerFlight Track Log ✈ JST419 ✈ 27-May-2012 ✈ YBCG / OOL - YSSY / SYD

Flight Track Log - Related Links

Times and Time Zones

All times are in EDT time to prevent confusion due to time zone crossing. See the JST419 flight status page for this flight to view local times or setup timezone preferences in your user account.

Time Position Orientation Groundspeed Altitude Reporting Facility
EDT Latitude Longitude Course Direction KTS MPH feet Rate Location/Type
05:11PM -28.1898 153.5215 157° South 170 196 1,600  Level Aus ATC (RADAR)
05:11PM -28.2180 153.5352 160° South 205 236 2,300 2,040 Climbing Aus ATC (RADAR)
05:12PM -28.2502 153.5489 217° Southwest 220 253 4,000 3,000 Climbing Aus ATC (RADAR)
05:13PM -28.3004 153.5065 237° Southwest 268 308 6,800 2,820 Climbing Aus ATC (RADAR)
05:14PM -28.3517 153.4167 236° Southwest 316 364 9,600 2,760 Climbing Aus ATC (RADAR)
05:14PM -28.3813 153.3678 235° Southwest 317 365 11,400 2,880 Climbing Aus ATC (RADAR)
05:15PM -28.4120 153.3172 221° Southwest 329 379 13,000 2,820 Climbing Aus ATC (RADAR)
05:15PM -28.4481 153.2817 207° Southwest 354 407 14,500 2,640 Climbing Aus ATC (RADAR)
05:16PM -28.5000 153.2517 208° Southwest 361 415 15,900 2,280 Climbing Aus ATC (RADAR)
05:17PM -28.5526 153.2193 208° Southwest 371 427 17,200 2,400 Climbing Aus ATC (RADAR)
05:17PM -28.6284 153.1727 208° Southwest 372 428 19,300 2,280 Climbing Aus ATC (RADAR)
05:18PM -28.7219 153.1152 208° Southwest 385 443 21,400 1,860 Climbing Aus ATC (RADAR)
05:19PM -28.7698 153.0856 209° Southwest 394 453 22,100 1,860 Climbing Aus ATC (RADAR)
05:20PM -28.8343 153.0455 208° Southwest 395 455 23,600 1,800 Climbing Aus ATC (RADAR)
05:20PM -28.8835 153.0154 209° Southwest 402 463 24,200 1,620 Climbing Aus ATC (RADAR)
05:21PM -28.9495 152.9740 208° Southwest 405 466 25,500 1,680 Climbing Aus ATC (RADAR)
05:21PM -28.9998 152.9433 209° Southwest 410 472 26,200 1,260 Climbing Aus ATC (RADAR)
05:22PM -29.0590 152.9060 208° Southwest 417 480 26,900 1,380 Climbing Aus ATC (RADAR)
05:23PM -29.1622 152.8420 209° Southwest 421 484 28,400 1,440 Climbing Aus ATC (RADAR)
05:23PM -29.2236 152.8037 209° Southwest 432 497 29,200 1,440 Climbing Aus ATC (RADAR)
05:24PM -29.2848 152.7653 209° Southwest 430 495 30,100 1,260 Climbing Aus ATC (RADAR)
05:25PM -29.3465 152.7266 208° Southwest 434 499 30,700 1,080 Climbing Aus ATC (RADAR)
05:25PM -29.4089 152.6878 209° Southwest 439 505 31,400 1,200 Climbing Aus ATC (RADAR)
05:26PM -29.4624 152.6538 209° Southwest 441 507 32,000 1,620 Climbing Aus ATC (RADAR)
05:26PM -29.5328 152.6098 209° Southwest 433 498 33,300 1,680 Climbing Aus ATC (RADAR)
05:27PM -29.5847 152.5767 209° Southwest 429 494 34,000 1,320 Climbing Aus ATC (RADAR)
05:28PM -29.6869 152.5128 209° Southwest 418 481 35,300 1,020 Climbing Aus ATC (RADAR)
05:28PM -29.7469 152.4740 209° Southwest 425 489 35,700 720 Climbing Aus ATC (RADAR)
05:29PM -29.8071 152.4356 209° Southwest 425 489 36,200 420 Climbing Aus ATC (RADAR)
05:30PM -29.8675 152.3967 209° Southwest 426 490 36,200  Level Aus ATC (RADAR)
05:30PM -29.9192 152.3637 209° Southwest 427 491 36,200  Level Aus ATC (RADAR)
05:31PM -29.9804 152.3245 209° Southwest 434 499 36,200  Level Aus ATC (RADAR)
05:31PM -30.0422 152.2848 209° Southwest 435 501 36,200  Level Aus ATC (RADAR)
05:32PM -30.1044 152.2454 209° Southwest 438 504 36,200  Level Aus ATC (RADAR)
05:33PM -30.2283 152.1657 207° Southwest 438 504 36,200  Level Aus ATC (RADAR)
05:34PM -30.3178 152.1118 208° Southwest 436 502 36,200  Level Aus ATC (RADAR)
05:34PM -30.3797 152.0743 209° Southwest 433 498 36,200  Level Aus ATC (RADAR)
05:35PM -30.4406 152.0350 214° Southwest 430 495 36,200  Level Aus ATC (RADAR)
05:35PM -30.4908 151.9960 209° Southwest 428 493 36,200  Level Aus ATC (RADAR)
05:36PM -30.5514 151.9568 209° Southwest 431 496 36,200  Level Aus ATC (RADAR)
05:37PM -30.6119 151.9177 209° Southwest 430 495 36,200  Level Aus ATC (RADAR)
05:37PM -30.6729 151.8783 209° Southwest 431 496 36,200 -120 Level Aus ATC (RADAR)
05:38PM -30.7600 151.8219 209° Southwest 433 498 36,100  Descending Aus ATC (RADAR)
05:39PM -30.8215 151.7820 203° Southwest 436 502 36,200 60 Climbing Aus ATC (RADAR)
05:39PM -30.8777 151.7546 198° South 441 507 36,200  Level Aus ATC (RADAR)
05:40PM -30.9564 151.7246 199° South 448 516 36,200  Level Aus ATC (RADAR)
05:40PM -31.0145 151.7007 199° South 445 512 36,200 -120 Level Aus ATC (RADAR)
05:41PM -31.0828 151.6729 199° South 448 516 36,100 -120 Descending Aus ATC (RADAR)
05:41PM -31.1507 151.6450 199° South 446 513 36,100 60 Level Aus ATC (RADAR)
05:42PM -31.2193 151.6174 199° South 449 517 36,200 60 Climbing Aus ATC (RADAR)
05:43PM -31.3268 151.5733 199° South 447 514 36,200  Level Aus ATC (RADAR)
05:44PM -31.4250 151.5333 199° South 448 516 36,200  Level Aus ATC (RADAR)
05:44PM -31.4943 151.5049 199° South 449 517 36,200  Level Aus ATC (RADAR)
05:45PM -31.5638 151.4766 199° South 451 519 36,200  Level Aus ATC (RADAR)
05:46PM -31.6332 151.4485 199° South 451 519 36,200  Level Aus ATC (RADAR)
05:46PM -31.6927 151.4241 199° South 450 518 36,200  Level Aus ATC (RADAR)
05:47PM -31.7716 151.3913 199° South 449 517 36,200 60 Level Aus ATC (RADAR)
05:47PM -31.8304 151.3670 200° South 446 513 36,300  Climbing Aus ATC (RADAR)
05:48PM -31.9368 151.3223 199° South 441 507 36,200 -120 Descending Aus ATC (RADAR)
05:49PM -31.9951 151.2981 200° South 442 509 36,200  Level Aus ATC (RADAR)
05:49PM -32.0632 151.2696 199° South 443 510 36,200  Level Aus ATC (RADAR)
05:50PM -32.1311 151.2415 199° South 443 510 36,200  Level Aus ATC (RADAR)
05:50PM -32.1993 151.2137 189° South 443 510 36,200 -660 Level Aus ATC (RADAR)
05:51PM -32.2615 151.2021 186° South 445 512 35,500 -2,280 Descending Aus ATC (RADAR)
05:52PM -32.3454 151.1913 188° South 455 524 33,600 -3,360 Descending Aus ATC (RADAR)
05:52PM -32.4104 151.1806 188° South 473 544 31,600 -3,060 Descending Aus ATC (RADAR)
05:53PM -32.5174 151.1626 188° South 458 527 29,600 -2,400 Descending Aus ATC (RADAR)
05:54PM -32.6330 151.1437 188° South 454 522 27,400 -2,340 Descending Aus ATC (RADAR)
05:54PM -32.7045 151.1324 188° South 446 513 26,100 -2,160 Descending Aus ATC (RADAR)
05:55PM -32.7829 151.1199 189° South 430 495 24,700 -2,280 Descending Aus ATC (RADAR)
05:56PM -32.8389 151.1099 188° South 411 473 23,500 -2,400 Descending Aus ATC (RADAR)
05:56PM -32.9135 151.0976 187° South 401 461 22,000 -2,280 Descending Aus ATC (RADAR)
05:57PM -32.9700 151.0891 189° South 406 467 20,900 -2,160 Descending Aus ATC (RADAR)
05:57PM -33.0334 151.0776 188° South 392 451 19,700 -2,220 Descending Aus ATC (RADAR)
05:58PM -33.1663 151.0561 186° South 378 435 17,000 -2,220 Descending Aus ATC (RADAR)
05:59PM -33.2519 151.0455 169° South 358 412 15,200 -2,100 Descending Aus ATC (RADAR)
06:00PM -33.3033 151.0569 171° South 364 419 14,200 -2,040 Descending Aus ATC (RADAR)
06:01PM -33.3697 151.0694 171° South 364 419 12,800 -1,920 Descending Aus ATC (RADAR)
06:01PM -33.4360 151.0820 171° South 357 411 11,700 -1,500 Descending Aus ATC (RADAR)
06:02PM -33.4863 151.0918 171° South 304 350 11,000 -1,620 Descending Aus ATC (RADAR)
06:02PM -33.5268 151.0998 171° South 291 335 10,000 -1,560 Descending Aus ATC (RADAR)
06:03PM -33.6051 151.1142 171° South 282 325 8,700 -900 Descending Aus ATC (RADAR)
06:04PM -33.6747 151.1281 170° South 276 318 8,300 -480 Descending Aus ATC (RADAR)
06:05PM -33.7434 151.1420 171° South 272 313 7,900 -480 Descending Aus ATC (RADAR)
06:06PM -33.7923 151.1513 182° South 267 307 7,600 -540 Descending Aus ATC (RADAR)
06:06PM -33.8298 151.1499 194° South 266 306 7,300 -660 Descending Aus ATC (RADAR)
06:07PM -33.8711 151.1374 193° South 264 304 6,900 -660 Descending Aus ATC (RADAR)
06:07PM -33.9139 151.1253 193° South 268 308 6,600 -420 Descending Aus ATC (RADAR)
06:09PM -34.0165 151.0956 193° South 268 308 6,100 -300 Descending Aus ATC (RADAR)
06:10PM -34.0773 151.0784 170° South 270 311 6,000 -660 Descending Aus ATC (RADAR)
06:10PM -34.1201 151.0871 167° South 268 308 5,200 -1,260 Descending Aus ATC (RADAR)
06:11PM -34.1661 151.0995 161° South 246 283 4,500 -900 Descending Aus ATC (RADAR)
06:11PM -34.1986 151.1128 101° East 241 277 4,200 -780 Descending Aus ATC (RADAR)
06:12PM -34.2059 151.1561 68° East 233 268 3,700 -780 Descending Aus ATC (RADAR)
06:13PM -34.1920 151.1983 14° North 220 253 3,300 -480 Descending Aus ATC (RADAR)
06:14PM -34.1177 151.2202 348° North 207 238 2,800 -540 Descending Aus ATC (RADAR)
06:15PM -34.0701 151.2081 348° North 209 241 2,200 -900 Descending Aus ATC (RADAR)
06:15PM -34.0418 151.2007 348° North 204 235 1,600 -1,140 Descending Aus ATC (RADAR)
06:16PM -34.0098 151.1925 348° North 169 194 900 -960 Descending Aus ATC (RADAR)
06:16PM -33.9884 151.1870 348° North 157 181 500 -780 Descending Aus ATC (RADAR)
06:17PM -33.9662 151.1813 348° North 137 158 100 -720 Descending Aus ATC (RADAR)